sensor_id;sensor_type;location;lat;lon;timestamp;P1;durP1;ratioP1;P2;durP2;ratioP2
5129;SDS011;2583;50.946;6.954;2023-01-04T00:01:53;3.10;;;1.07;;
5129;SDS011;2583;50.946;6.954;2023-01-04T00:04:19;5.27;;;0.90;;
5129;SDS011;2583;50.946;6.954;2023-01-04T00:06:46;3.30;;;1.10;;
5129;SDS011;2583;50.946;6.954;2023-01-04T00:09:13;5.23;;;1.07;;
5129;SDS011;2583;50.946;6.954;2023-01-04T00:11:40;3.67;;;1.33;;
5129;SDS011;2583;50.946;6.954;2023-01-04T00:14:08;4.43;;;1.30;;
5129;SDS011;2583;50.946;6.954;2023-01-04T00:16:36;2.93;;;1.50;;
5129;SDS011;2583;50.946;6.954;2023-01-04T00:19:03;6.30;;;1.40;;
5129;SDS011;2583;50.946;6.954;2023-01-04T00:21:30;4.83;;;0.87;;
5129;SDS011;2583;50.946;6.954;2023-01-04T00:23:58;4.53;;;1.27;;
5129;SDS011;2583;50.946;6.954;2023-01-04T00:26:32;3.17;;;1.23;;
5129;SDS011;2583;50.946;6.954;2023-01-04T00:29:01;3.80;;;1.20;;
5129;SDS011;2583;50.946;6.954;2023-01-04T00:31:30;3.47;;;1.20;;
5129;SDS011;2583;50.946;6.954;2023-01-04T00:34:00;2.10;;;1.23;;
5129;SDS011;2583;50.946;6.954;2023-01-04T00:36:28;3.13;;;0.90;;
5129;SDS011;2583;50.946;6.954;2023-01-04T00:38:56;7.87;;;1.23;;
5129;SDS011;2583;50.946;6.954;2023-01-04T00:44:22;4.20;;;1.00;;
5129;SDS011;2583;50.946;6.954;2023-01-04T00:46:49;5.60;;;1.03;;
5129;SDS011;2583;50.946;6.954;2023-01-04T00:49:16;6.97;;;1.40;;
5129;SDS011;2583;50.946;6.954;2023-01-04T00:51:42;5.90;;;1.53;;
5129;SDS011;2583;50.946;6.954;2023-01-04T00:54:11;3.10;;;1.23;;
5129;SDS011;2583;50.946;6.954;2023-01-04T00:56:39;3.77;;;1.17;;
5129;SDS011;2583;50.946;6.954;2023-01-04T00:59:05;5.87;;;0.90;;
5129;SDS011;2583;50.946;6.954;2023-01-04T01:01:33;5.63;;;1.20;;
5129;SDS011;2583;50.946;6.954;2023-01-04T01:04:01;4.00;;;1.03;;
5129;SDS011;2583;50.946;6.954;2023-01-04T01:06:29;1.90;;;1.20;;
5129;SDS011;2583;50.946;6.954;2023-01-04T01:08:57;2.60;;;1.20;;
5129;SDS011;2583;50.946;6.954;2023-01-04T01:11:25;2.40;;;1.53;;
5129;SDS011;2583;50.946;6.954;2023-01-04T01:13:53;5.67;;;1.33;;
5129;SDS011;2583;50.946;6.954;2023-01-04T01:16:20;20.43;;;1.93;;
5129;SDS011;2583;50.946;6.954;2023-01-04T01:19:08;8.80;;;1.13;;
5129;SDS011;2583;50.946;6.954;2023-01-04T01:21:35;4.50;;;1.27;;
5129;SDS011;2583;50.946;6.954;2023-01-04T01:24:03;3.33;;;1.20;;
5129;SDS011;2583;50.946;6.954;2023-01-04T01:26:31;3.00;;;1.17;;
5129;SDS011;2583;50.946;6.954;2023-01-04T01:28:57;2.57;;;1.20;;
5129;SDS011;2583;50.946;6.954;2023-01-04T01:31:26;4.23;;;1.37;;
5129;SDS011;2583;50.946;6.954;2023-01-04T01:33:54;4.27;;;1.90;;
5129;SDS011;2583;50.946;6.954;2023-01-04T01:36:23;4.73;;;1.50;;
5129;SDS011;2583;50.946;6.954;2023-01-04T01:38:51;2.70;;;1.00;;
5129;SDS011;2583;50.946;6.954;2023-01-04T01:41:20;5.80;;;1.30;;
5129;SDS011;2583;50.946;6.954;2023-01-04T01:48:58;4.70;;;1.30;;
5129;SDS011;2583;50.946;6.954;2023-01-04T01:51:29;3.83;;;1.33;;
5129;SDS011;2583;50.946;6.954;2023-01-04T01:54:00;2.80;;;1.17;;
5129;SDS011;2583;50.946;6.954;2023-01-04T01:56:32;8.10;;;1.57;;
5129;SDS011;2583;50.946;6.954;2023-01-04T01:59:03;4.13;;;1.13;;
5129;SDS011;2583;50.946;6.954;2023-01-04T02:01:31;4.00;;;1.20;;
5129;SDS011;2583;50.946;6.954;2023-01-04T02:03:59;6.23;;;1.20;;
5129;SDS011;2583;50.946;6.954;2023-01-04T02:06:28;7.60;;;1.10;;
5129;SDS011;2583;50.946;6.954;2023-01-04T02:08:59;7.50;;;1.40;;
5129;SDS011;2583;50.946;6.954;2023-01-04T02:11:27;4.07;;;1.40;;
5129;SDS011;2583;50.946;6.954;2023-01-04T02:13:54;3.70;;;1.40;;
5129;SDS011;2583;50.946;6.954;2023-01-04T02:37:41;2.00;;;0.70;;
5129;SDS011;2583;50.946;6.954;2023-01-04T02:40:27;4.30;;;1.33;;
5129;SDS011;2583;50.946;6.954;2023-01-04T02:43:13;6.70;;;0.90;;
5129;SDS011;2583;50.946;6.954;2023-01-04T02:46:08;2.70;;;1.10;;
5129;SDS011;2583;50.946;6.954;2023-01-04T02:48:40;1.77;;;0.70;;
5129;SDS011;2583;50.946;6.954;2023-01-04T02:51:34;1.97;;;0.90;;
5129;SDS011;2583;50.946;6.954;2023-01-04T02:54:12;3.60;;;0.83;;
5129;SDS011;2583;50.946;6.954;2023-01-04T03:11:06;1.70;;;0.73;;
5129;SDS011;2583;50.946;6.954;2023-01-04T03:13:54;2.13;;;0.70;;
5129;SDS011;2583;50.946;6.954;2023-01-04T03:16:25;2.77;;;0.90;;
5129;SDS011;2583;50.946;6.954;2023-01-04T03:18:55;1.93;;;0.70;;
5129;SDS011;2583;50.946;6.954;2023-01-04T03:21:29;1.40;;;0.60;;
5129;SDS011;2583;50.946;6.954;2023-01-04T03:23:58;0.90;;;0.50;;
5129;SDS011;2583;50.946;6.954;2023-01-04T03:26:47;2.03;;;0.70;;
5129;SDS011;2583;50.946;6.954;2023-01-04T03:29:42;1.40;;;0.40;;
5129;SDS011;2583;50.946;6.954;2023-01-04T03:32:36;1.40;;;0.50;;
5129;SDS011;2583;50.946;6.954;2023-01-04T03:35:32;2.50;;;0.77;;
5129;SDS011;2583;50.946;6.954;2023-01-04T03:38:07;3.10;;;1.10;;
5129;SDS011;2583;50.946;6.954;2023-01-04T03:46:51;2.20;;;0.60;;
5129;SDS011;2583;50.946;6.954;2023-01-04T03:49:40;1.00;;;0.40;;
5129;SDS011;2583;50.946;6.954;2023-01-04T03:52:12;1.43;;;0.73;;
5129;SDS011;2583;50.946;6.954;2023-01-04T03:54:41;0.73;;;0.40;;
5129;SDS011;2583;50.946;6.954;2023-01-04T03:57:11;1.27;;;0.50;;
5129;SDS011;2583;50.946;6.954;2023-01-04T03:59:40;0.90;;;0.60;;
5129;SDS011;2583;50.946;6.954;2023-01-04T04:02:13;2.43;;;0.50;;
5129;SDS011;2583;50.946;6.954;2023-01-04T04:04:44;0.83;;;0.40;;
5129;SDS011;2583;50.946;6.954;2023-01-04T04:07:30;0.80;;;0.40;;
5129;SDS011;2583;50.946;6.954;2023-01-04T04:10:16;0.93;;;0.40;;
5129;SDS011;2583;50.946;6.954;2023-01-04T04:12:43;1.17;;;0.43;;
5129;SDS011;2583;50.946;6.954;2023-01-04T04:15:10;0.70;;;0.40;;
5129;SDS011;2583;50.946;6.954;2023-01-04T04:17:37;1.07;;;0.60;;
5129;SDS011;2583;50.946;6.954;2023-01-04T04:20:04;1.03;;;0.40;;
5129;SDS011;2583;50.946;6.954;2023-01-04T04:22:31;1.30;;;0.50;;
5129;SDS011;2583;50.946;6.954;2023-01-04T04:24:58;0.90;;;0.40;;
5129;SDS011;2583;50.946;6.954;2023-01-04T04:27:25;0.80;;;0.50;;
5129;SDS011;2583;50.946;6.954;2023-01-04T04:29:52;1.50;;;0.40;;
5129;SDS011;2583;50.946;6.954;2023-01-04T04:32:19;1.37;;;0.50;;
5129;SDS011;2583;50.946;6.954;2023-01-04T04:34:45;0.80;;;0.40;;
5129;SDS011;2583;50.946;6.954;2023-01-04T04:37:13;1.10;;;0.30;;
5129;SDS011;2583;50.946;6.954;2023-01-04T04:39:40;1.00;;;0.30;;
5129;SDS011;2583;50.946;6.954;2023-01-04T04:42:07;0.80;;;0.40;;
5129;SDS011;2583;50.946;6.954;2023-01-04T04:44:34;0.87;;;0.40;;
5129;SDS011;2583;50.946;6.954;2023-01-04T04:47:01;1.10;;;0.70;;
5129;SDS011;2583;50.946;6.954;2023-01-04T04:49:28;0.70;;;0.30;;
5129;SDS011;2583;50.946;6.954;2023-01-04T04:51:55;0.90;;;0.43;;
5129;SDS011;2583;50.946;6.954;2023-01-04T04:54:22;1.10;;;0.33;;
5129;SDS011;2583;50.946;6.954;2023-01-04T04:56:49;2.83;;;0.40;;
5129;SDS011;2583;50.946;6.954;2023-01-04T04:59:16;0.80;;;0.40;;
5129;SDS011;2583;50.946;6.954;2023-01-04T05:01:43;2.80;;;0.40;;
5129;SDS011;2583;50.946;6.954;2023-01-04T05:04:10;3.30;;;0.60;;
5129;SDS011;2583;50.946;6.954;2023-01-04T05:06:42;1.47;;;0.50;;
5129;SDS011;2583;50.946;6.954;2023-01-04T05:09:10;2.37;;;0.40;;
5129;SDS011;2583;50.946;6.954;2023-01-04T05:11:38;0.73;;;0.30;;
5129;SDS011;2583;50.946;6.954;2023-01-04T05:14:24;0.70;;;0.30;;
5129;SDS011;2583;50.946;6.954;2023-01-04T05:16:51;0.90;;;0.40;;
5129;SDS011;2583;50.946;6.954;2023-01-04T05:19:18;0.80;;;0.30;;
5129;SDS011;2583;50.946;6.954;2023-01-04T05:21:45;0.80;;;0.40;;
5129;SDS011;2583;50.946;6.954;2023-01-04T05:24:12;0.73;;;0.30;;
5129;SDS011;2583;50.946;6.954;2023-01-04T05:26:39;0.80;;;0.40;;
5129;SDS011;2583;50.946;6.954;2023-01-04T05:29:06;0.90;;;0.40;;
5129;SDS011;2583;50.946;6.954;2023-01-04T05:31:53;0.77;;;0.40;;
5129;SDS011;2583;50.946;6.954;2023-01-04T05:34:20;0.70;;;0.30;;
5129;SDS011;2583;50.946;6.954;2023-01-04T05:36:47;1.17;;;0.30;;
5129;SDS011;2583;50.946;6.954;2023-01-04T05:39:14;0.80;;;0.37;;
5129;SDS011;2583;50.946;6.954;2023-01-04T05:41:44;0.90;;;0.30;;
5129;SDS011;2583;50.946;6.954;2023-01-04T05:44:29;0.70;;;0.30;;
5129;SDS011;2583;50.946;6.954;2023-01-04T05:46:56;0.70;;;0.30;;
5129;SDS011;2583;50.946;6.954;2023-01-04T05:49:23;0.90;;;0.43;;
5129;SDS011;2583;50.946;6.954;2023-01-04T05:51:50;0.70;;;0.33;;
5129;SDS011;2583;50.946;6.954;2023-01-04T05:54:16;2.73;;;0.47;;
5129;SDS011;2583;50.946;6.954;2023-01-04T05:56:46;1.00;;;0.40;;
5129;SDS011;2583;50.946;6.954;2023-01-04T05:59:13;0.80;;;0.40;;
5129;SDS011;2583;50.946;6.954;2023-01-04T06:01:41;1.00;;;0.30;;
5129;SDS011;2583;50.946;6.954;2023-01-04T06:04:08;1.20;;;0.30;;
5129;SDS011;2583;50.946;6.954;2023-01-04T06:06:35;1.23;;;0.30;;
5129;SDS011;2583;50.946;6.954;2023-01-04T06:09:02;1.30;;;0.40;;
5129;SDS011;2583;50.946;6.954;2023-01-04T06:11:29;0.90;;;0.30;;
5129;SDS011;2583;50.946;6.954;2023-01-04T06:13:55;0.80;;;0.40;;
5129;SDS011;2583;50.946;6.954;2023-01-04T06:16:22;0.70;;;0.40;;
5129;SDS011;2583;50.946;6.954;2023-01-04T06:18:49;0.80;;;0.40;;
5129;SDS011;2583;50.946;6.954;2023-01-04T06:21:16;0.83;;;0.30;;
5129;SDS011;2583;50.946;6.954;2023-01-04T06:23:43;1.20;;;0.40;;
5129;SDS011;2583;50.946;6.954;2023-01-04T06:26:10;1.33;;;0.50;;
5129;SDS011;2583;50.946;6.954;2023-01-04T06:28:37;0.90;;;0.40;;
5129;SDS011;2583;50.946;6.954;2023-01-04T06:31:06;0.83;;;0.40;;
5129;SDS011;2583;50.946;6.954;2023-01-04T06:33:34;1.00;;;0.53;;
5129;SDS011;2583;50.946;6.954;2023-01-04T06:36:03;0.90;;;0.50;;
5129;SDS011;2583;50.946;6.954;2023-01-04T06:38:31;0.70;;;0.30;;
5129;SDS011;2583;50.946;6.954;2023-01-04T06:40:59;1.00;;;0.40;;
5129;SDS011;2583;50.946;6.954;2023-01-04T06:43:25;1.23;;;0.80;;
5129;SDS011;2583;50.946;6.954;2023-01-04T06:45:53;1.00;;;0.47;;
5129;SDS011;2583;50.946;6.954;2023-01-04T06:48:20;0.90;;;0.50;;
5129;SDS011;2583;50.946;6.954;2023-01-04T06:50:46;0.93;;;0.40;;
5129;SDS011;2583;50.946;6.954;2023-01-04T06:53:13;0.97;;;0.50;;
5129;SDS011;2583;50.946;6.954;2023-01-04T06:55:42;0.90;;;0.50;;
5129;SDS011;2583;50.946;6.954;2023-01-04T06:58:09;0.60;;;0.30;;
5129;SDS011;2583;50.946;6.954;2023-01-04T07:00:36;1.03;;;0.40;;
5129;SDS011;2583;50.946;6.954;2023-01-04T07:03:03;0.80;;;0.40;;
5129;SDS011;2583;50.946;6.954;2023-01-04T07:05:40;1.47;;;0.40;;
5129;SDS011;2583;50.946;6.954;2023-01-04T07:08:08;1.10;;;0.53;;
5129;SDS011;2583;50.946;6.954;2023-01-04T07:10:35;0.90;;;0.40;;
5129;SDS011;2583;50.946;6.954;2023-01-04T07:13:02;0.77;;;0.30;;
5129;SDS011;2583;50.946;6.954;2023-01-04T07:15:29;0.70;;;0.33;;
5129;SDS011;2583;50.946;6.954;2023-01-04T07:18:05;1.10;;;0.40;;
5129;SDS011;2583;50.946;6.954;2023-01-04T07:20:33;0.97;;;0.30;;
5129;SDS011;2583;50.946;6.954;2023-01-04T07:23:01;0.73;;;0.40;;
5129;SDS011;2583;50.946;6.954;2023-01-04T07:25:28;2.10;;;0.40;;
5129;SDS011;2583;50.946;6.954;2023-01-04T07:27:54;0.97;;;0.47;;
5129;SDS011;2583;50.946;6.954;2023-01-04T07:30:22;2.30;;;0.70;;
5129;SDS011;2583;50.946;6.954;2023-01-04T07:32:52;0.97;;;0.40;;
5129;SDS011;2583;50.946;6.954;2023-01-04T07:35:20;0.70;;;0.37;;
5129;SDS011;2583;50.946;6.954;2023-01-04T07:37:47;0.90;;;0.40;;
5129;SDS011;2583;50.946;6.954;2023-01-04T07:40:23;0.70;;;0.40;;
5129;SDS011;2583;50.946;6.954;2023-01-04T07:42:56;1.00;;;0.43;;
5129;SDS011;2583;50.946;6.954;2023-01-04T07:45:24;0.70;;;0.30;;
5129;SDS011;2583;50.946;6.954;2023-01-04T07:47:51;0.90;;;0.40;;
5129;SDS011;2583;50.946;6.954;2023-01-04T07:50:19;0.90;;;0.50;;
5129;SDS011;2583;50.946;6.954;2023-01-04T07:52:45;0.90;;;0.50;;
5129;SDS011;2583;50.946;6.954;2023-01-04T07:55:12;1.10;;;0.47;;
5129;SDS011;2583;50.946;6.954;2023-01-04T07:57:39;3.33;;;0.50;;
5129;SDS011;2583;50.946;6.954;2023-01-04T08:00:06;0.90;;;0.40;;
5129;SDS011;2583;50.946;6.954;2023-01-04T08:02:33;0.93;;;0.40;;
5129;SDS011;2583;50.946;6.954;2023-01-04T08:05:01;0.90;;;0.40;;
5129;SDS011;2583;50.946;6.954;2023-01-04T08:07:28;1.13;;;0.73;;
5129;SDS011;2583;50.946;6.954;2023-01-04T08:09:55;0.70;;;0.40;;
5129;SDS011;2583;50.946;6.954;2023-01-04T08:12:21;2.10;;;0.47;;
5129;SDS011;2583;50.946;6.954;2023-01-04T08:14:48;0.80;;;0.57;;
5129;SDS011;2583;50.946;6.954;2023-01-04T08:17:15;1.97;;;0.50;;
5129;SDS011;2583;50.946;6.954;2023-01-04T08:19:42;0.80;;;0.40;;
5129;SDS011;2583;50.946;6.954;2023-01-04T08:22:09;1.17;;;0.50;;
5129;SDS011;2583;50.946;6.954;2023-01-04T08:24:35;0.90;;;0.50;;
5129;SDS011;2583;50.946;6.954;2023-01-04T08:27:02;1.33;;;0.60;;
5129;SDS011;2583;50.946;6.954;2023-01-04T08:29:29;2.30;;;0.50;;
5129;SDS011;2583;50.946;6.954;2023-01-04T08:32:00;0.90;;;0.40;;
5129;SDS011;2583;50.946;6.954;2023-01-04T08:34:27;1.73;;;0.50;;
5129;SDS011;2583;50.946;6.954;2023-01-04T08:36:55;2.20;;;0.60;;
5129;SDS011;2583;50.946;6.954;2023-01-04T08:39:22;0.80;;;0.40;;
5129;SDS011;2583;50.946;6.954;2023-01-04T08:41:48;0.80;;;0.40;;
5129;SDS011;2583;50.946;6.954;2023-01-04T08:44:24;1.53;;;0.90;;
5129;SDS011;2583;50.946;6.954;2023-01-04T08:46:52;0.90;;;0.50;;
5129;SDS011;2583;50.946;6.954;2023-01-04T08:49:20;1.33;;;0.60;;
5129;SDS011;2583;50.946;6.954;2023-01-04T08:51:47;0.80;;;0.40;;
5129;SDS011;2583;50.946;6.954;2023-01-04T08:54:14;1.00;;;0.50;;
5129;SDS011;2583;50.946;6.954;2023-01-04T08:56:42;1.00;;;0.60;;
5129;SDS011;2583;50.946;6.954;2023-01-04T08:59:09;1.00;;;0.60;;
5129;SDS011;2583;50.946;6.954;2023-01-04T09:01:38;1.20;;;0.40;;
5129;SDS011;2583;50.946;6.954;2023-01-04T09:04:05;0.80;;;0.50;;
5129;SDS011;2583;50.946;6.954;2023-01-04T09:06:33;0.93;;;0.53;;
5129;SDS011;2583;50.946;6.954;2023-01-04T09:09:00;1.70;;;0.80;;
5129;SDS011;2583;50.946;6.954;2023-01-04T09:11:27;1.00;;;0.60;;
5129;SDS011;2583;50.946;6.954;2023-01-04T09:13:54;1.30;;;0.80;;
5129;SDS011;2583;50.946;6.954;2023-01-04T09:16:33;1.67;;;0.70;;
5129;SDS011;2583;50.946;6.954;2023-01-04T09:19:00;8.70;;;1.00;;
5129;SDS011;2583;50.946;6.954;2023-01-04T09:21:27;1.00;;;0.60;;
5129;SDS011;2583;50.946;6.954;2023-01-04T09:23:55;0.90;;;0.40;;
5129;SDS011;2583;50.946;6.954;2023-01-04T09:26:22;1.00;;;0.50;;
5129;SDS011;2583;50.946;6.954;2023-01-04T09:28:50;1.00;;;0.53;;
5129;SDS011;2583;50.946;6.954;2023-01-04T09:31:19;0.80;;;0.40;;
5129;SDS011;2583;50.946;6.954;2023-01-04T09:33:47;0.90;;;0.40;;
5129;SDS011;2583;50.946;6.954;2023-01-04T09:36:34;0.90;;;0.40;;
5129;SDS011;2583;50.946;6.954;2023-01-04T09:39:01;1.00;;;0.40;;
5129;SDS011;2583;50.946;6.954;2023-01-04T09:41:29;0.90;;;0.53;;
5129;SDS011;2583;50.946;6.954;2023-01-04T09:44:01;1.17;;;0.50;;
5129;SDS011;2583;50.946;6.954;2023-01-04T09:46:54;2.63;;;0.60;;
5129;SDS011;2583;50.946;6.954;2023-01-04T09:49:31;1.00;;;0.50;;
5129;SDS011;2583;50.946;6.954;2023-01-04T09:55:11;1.00;;;0.50;;
5129;SDS011;2583;50.946;6.954;2023-01-04T09:57:55;1.90;;;0.40;;
5129;SDS011;2583;50.946;6.954;2023-01-04T10:00:30;2.00;;;0.40;;
5129;SDS011;2583;50.946;6.954;2023-01-04T10:03:11;1.80;;;1.50;;
5129;SDS011;2583;50.946;6.954;2023-01-04T10:05:51;1.23;;;0.50;;
5129;SDS011;2583;50.946;6.954;2023-01-04T10:08:20;0.80;;;0.40;;
5129;SDS011;2583;50.946;6.954;2023-01-04T10:16:14;1.17;;;0.50;;
5129;SDS011;2583;50.946;6.954;2023-01-04T10:29:52;0.90;;;0.40;;
5129;SDS011;2583;50.946;6.954;2023-01-04T10:34:52;1.00;;;0.50;;
5129;SDS011;2583;50.946;6.954;2023-01-04T10:37:20;3.07;;;0.40;;
5129;SDS011;2583;50.946;6.954;2023-01-04T10:39:51;3.43;;;0.50;;
5129;SDS011;2583;50.946;6.954;2023-01-04T10:42:25;0.90;;;0.40;;
5129;SDS011;2583;50.946;6.954;2023-01-04T10:45:05;0.83;;;0.47;;
5129;SDS011;2583;50.946;6.954;2023-01-04T10:58:53;14.43;;;8.77;;
5129;SDS011;2583;50.946;6.954;2023-01-04T11:01:36;1.40;;;0.67;;
5129;SDS011;2583;50.946;6.954;2023-01-04T11:06:45;1.90;;;0.80;;
5129;SDS011;2583;50.946;6.954;2023-01-04T11:09:21;1.43;;;0.70;;
5129;SDS011;2583;50.946;6.954;2023-01-04T11:11:58;5.80;;;0.90;;
5129;SDS011;2583;50.946;6.954;2023-01-04T11:14:26;2.00;;;0.90;;
5129;SDS011;2583;50.946;6.954;2023-01-04T11:17:02;1.50;;;0.70;;
5129;SDS011;2583;50.946;6.954;2023-01-04T11:19:31;1.90;;;0.70;;
5129;SDS011;2583;50.946;6.954;2023-01-04T11:22:03;5.70;;;1.67;;
5129;SDS011;2583;50.946;6.954;2023-01-04T11:24:37;1.40;;;0.80;;
5129;SDS011;2583;50.946;6.954;2023-01-04T11:27:27;2.13;;;1.27;;
5129;SDS011;2583;50.946;6.954;2023-01-04T11:30:02;2.30;;;1.13;;
5129;SDS011;2583;50.946;6.954;2023-01-04T11:32:38;2.10;;;0.80;;
5129;SDS011;2583;50.946;6.954;2023-01-04T11:35:05;2.00;;;0.80;;
5129;SDS011;2583;50.946;6.954;2023-01-04T11:37:33;1.30;;;0.77;;
5129;SDS011;2583;50.946;6.954;2023-01-04T11:42:42;2.07;;;0.80;;
5129;SDS011;2583;50.946;6.954;2023-01-04T11:45:30;1.63;;;0.93;;
5129;SDS011;2583;50.946;6.954;2023-01-04T11:47:57;1.00;;;0.70;;
5129;SDS011;2583;50.946;6.954;2023-01-04T11:50:42;1.93;;;0.77;;
5129;SDS011;2583;50.946;6.954;2023-01-04T11:53:29;1.93;;;0.50;;
5129;SDS011;2583;50.946;6.954;2023-01-04T11:56:09;1.17;;;0.70;;
5129;SDS011;2583;50.946;6.954;2023-01-04T11:58:36;1.47;;;0.70;;
5129;SDS011;2583;50.946;6.954;2023-01-04T12:01:03;1.00;;;0.50;;
5129;SDS011;2583;50.946;6.954;2023-01-04T12:03:31;3.27;;;1.40;;
5129;SDS011;2583;50.946;6.954;2023-01-04T12:06:09;1.20;;;0.70;;
5129;SDS011;2583;50.946;6.954;2023-01-04T12:08:42;2.40;;;0.70;;
5129;SDS011;2583;50.946;6.954;2023-01-04T12:11:14;1.60;;;0.90;;
5129;SDS011;2583;50.946;6.954;2023-01-04T12:13:44;1.20;;;1.10;;
5129;SDS011;2583;50.946;6.954;2023-01-04T12:18:57;1.30;;;0.80;;
5129;SDS011;2583;50.946;6.954;2023-01-04T12:21:24;5.33;;;0.77;;
5129;SDS011;2583;50.946;6.954;2023-01-04T12:23:52;1.20;;;0.70;;
5129;SDS011;2583;50.946;6.954;2023-01-04T12:26:20;1.97;;;0.60;;
5129;SDS011;2583;50.946;6.954;2023-01-04T12:31:51;1.27;;;0.50;;
5129;SDS011;2583;50.946;6.954;2023-01-04T12:50:07;0.80;;;0.50;;
5129;SDS011;2583;50.946;6.954;2023-01-04T12:58:01;0.80;;;0.50;;
5129;SDS011;2583;50.946;6.954;2023-01-04T13:05:58;5.13;;;2.97;;
5129;SDS011;2583;50.946;6.954;2023-01-04T13:08:27;0.80;;;0.50;;
5129;SDS011;2583;50.946;6.954;2023-01-04T13:10:59;1.30;;;0.40;;
5129;SDS011;2583;50.946;6.954;2023-01-04T13:16:08;0.90;;;0.37;;
5129;SDS011;2583;50.946;6.954;2023-01-04T13:21:23;1.03;;;0.43;;
5129;SDS011;2583;50.946;6.954;2023-01-04T13:26:49;0.80;;;0.50;;
5129;SDS011;2583;50.946;6.954;2023-01-04T13:29:26;0.70;;;0.30;;
5129;SDS011;2583;50.946;6.954;2023-01-04T13:31:58;1.00;;;0.50;;
5129;SDS011;2583;50.946;6.954;2023-01-04T13:34:30;0.87;;;0.40;;
5129;SDS011;2583;50.946;6.954;2023-01-04T13:37:58;0.80;;;0.40;;
5129;SDS011;2583;50.946;6.954;2023-01-04T13:42:47;2.13;;;0.60;;
5129;SDS011;2583;50.946;6.954;2023-01-04T13:47:46;0.90;;;0.40;;
5129;SDS011;2583;50.946;6.954;2023-01-04T13:53:05;1.40;;;0.40;;
5129;SDS011;2583;50.946;6.954;2023-01-04T13:55:41;1.10;;;0.50;;
5129;SDS011;2583;50.946;6.954;2023-01-04T13:58:15;0.87;;;0.50;;
5129;SDS011;2583;50.946;6.954;2023-01-04T14:03:29;0.80;;;0.50;;
5129;SDS011;2583;50.946;6.954;2023-01-04T14:06:12;0.80;;;0.40;;
5129;SDS011;2583;50.946;6.954;2023-01-04T14:08:48;0.90;;;0.50;;
5129;SDS011;2583;50.946;6.954;2023-01-04T14:12:07;1.60;;;0.80;;
5129;SDS011;2583;50.946;6.954;2023-01-04T14:14:45;0.80;;;0.40;;
5129;SDS011;2583;50.946;6.954;2023-01-04T14:22:38;0.90;;;0.40;;
5129;SDS011;2583;50.946;6.954;2023-01-04T14:30:51;0.80;;;0.40;;
5129;SDS011;2583;50.946;6.954;2023-01-04T14:33:29;0.80;;;0.33;;
5129;SDS011;2583;50.946;6.954;2023-01-04T14:41:39;0.80;;;0.33;;
5129;SDS011;2583;50.946;6.954;2023-01-04T14:44:13;0.80;;;0.40;;
5129;SDS011;2583;50.946;6.954;2023-01-04T14:46:42;1.10;;;0.50;;
5129;SDS011;2583;50.946;6.954;2023-01-04T14:49:14;0.70;;;0.40;;
5129;SDS011;2583;50.946;6.954;2023-01-04T14:51:46;0.80;;;0.40;;
5129;SDS011;2583;50.946;6.954;2023-01-04T14:54:15;1.63;;;0.40;;
5129;SDS011;2583;50.946;6.954;2023-01-04T14:56:51;1.43;;;0.40;;
5129;SDS011;2583;50.946;6.954;2023-01-04T14:59:18;0.73;;;0.40;;
5129;SDS011;2583;50.946;6.954;2023-01-04T15:01:52;0.83;;;0.50;;
5129;SDS011;2583;50.946;6.954;2023-01-04T15:04:21;0.80;;;0.40;;
5129;SDS011;2583;50.946;6.954;2023-01-04T15:06:49;0.80;;;0.47;;
5129;SDS011;2583;50.946;6.954;2023-01-04T15:09:18;0.73;;;0.40;;
5129;SDS011;2583;50.946;6.954;2023-01-04T15:11:46;0.77;;;0.40;;
5129;SDS011;2583;50.946;6.954;2023-01-04T15:14:13;1.10;;;0.40;;
5129;SDS011;2583;50.946;6.954;2023-01-04T15:16:40;1.00;;;0.60;;
5129;SDS011;2583;50.946;6.954;2023-01-04T15:19:07;1.83;;;0.40;;
5129;SDS011;2583;50.946;6.954;2023-01-04T15:21:34;0.80;;;0.40;;
5129;SDS011;2583;50.946;6.954;2023-01-04T15:24:06;1.07;;;0.40;;
5129;SDS011;2583;50.946;6.954;2023-01-04T15:26:34;0.90;;;0.40;;
5129;SDS011;2583;50.946;6.954;2023-01-04T15:29:01;0.80;;;0.40;;
5129;SDS011;2583;50.946;6.954;2023-01-04T15:31:29;1.13;;;0.60;;
5129;SDS011;2583;50.946;6.954;2023-01-04T15:34:04;1.97;;;0.47;;
5129;SDS011;2583;50.946;6.954;2023-01-04T15:36:31;0.80;;;0.40;;
5129;SDS011;2583;50.946;6.954;2023-01-04T15:38:58;1.43;;;0.60;;
5129;SDS011;2583;50.946;6.954;2023-01-04T15:41:24;2.13;;;0.50;;
5129;SDS011;2583;50.946;6.954;2023-01-04T15:44:09;1.30;;;0.50;;
5129;SDS011;2583;50.946;6.954;2023-01-04T15:46:37;2.17;;;0.40;;
5129;SDS011;2583;50.946;6.954;2023-01-04T15:49:04;1.37;;;0.70;;
5129;SDS011;2583;50.946;6.954;2023-01-04T15:51:32;1.80;;;0.70;;
5129;SDS011;2583;50.946;6.954;2023-01-04T15:53:59;0.70;;;0.40;;
5129;SDS011;2583;50.946;6.954;2023-01-04T15:56:26;1.53;;;0.70;;
5129;SDS011;2583;50.946;6.954;2023-01-04T15:58:53;1.00;;;0.57;;
5129;SDS011;2583;50.946;6.954;2023-01-04T16:01:20;1.10;;;0.57;;
5129;SDS011;2583;50.946;6.954;2023-01-04T16:03:48;1.10;;;0.53;;
5129;SDS011;2583;50.946;6.954;2023-01-04T16:06:19;1.00;;;0.60;;
5129;SDS011;2583;50.946;6.954;2023-01-04T16:08:47;1.20;;;0.60;;
5129;SDS011;2583;50.946;6.954;2023-01-04T16:11:21;2.40;;;0.57;;
5129;SDS011;2583;50.946;6.954;2023-01-04T16:13:49;1.00;;;0.50;;
5129;SDS011;2583;50.946;6.954;2023-01-04T16:16:18;1.40;;;0.53;;
5129;SDS011;2583;50.946;6.954;2023-01-04T16:18:47;1.63;;;0.60;;
5129;SDS011;2583;50.946;6.954;2023-01-04T16:21:18;1.00;;;0.53;;
5129;SDS011;2583;50.946;6.954;2023-01-04T16:23:54;1.00;;;0.50;;
5129;SDS011;2583;50.946;6.954;2023-01-04T16:26:30;1.10;;;0.63;;
5129;SDS011;2583;50.946;6.954;2023-01-04T16:28:57;1.03;;;0.70;;
5129;SDS011;2583;50.946;6.954;2023-01-04T16:31:26;1.20;;;0.80;;
5129;SDS011;2583;50.946;6.954;2023-01-04T16:33:58;1.27;;;0.90;;
5129;SDS011;2583;50.946;6.954;2023-01-04T16:36:25;17.43;;;15.23;;
5129;SDS011;2583;50.946;6.954;2023-01-04T16:38:52;1.17;;;0.73;;
5129;SDS011;2583;50.946;6.954;2023-01-04T16:41:19;1.30;;;0.73;;
5129;SDS011;2583;50.946;6.954;2023-01-04T16:43:48;1.03;;;0.60;;
5129;SDS011;2583;50.946;6.954;2023-01-04T16:46:24;1.10;;;0.60;;
5129;SDS011;2583;50.946;6.954;2023-01-04T16:49:11;1.30;;;0.70;;
5129;SDS011;2583;50.946;6.954;2023-01-04T16:51:40;1.20;;;0.60;;
5129;SDS011;2583;50.946;6.954;2023-01-04T16:54:09;1.77;;;1.00;;
5129;SDS011;2583;50.946;6.954;2023-01-04T16:56:38;2.20;;;0.80;;
5129;SDS011;2583;50.946;6.954;2023-01-04T16:59:07;1.27;;;0.70;;
5129;SDS011;2583;50.946;6.954;2023-01-04T17:01:36;0.90;;;0.50;;
5129;SDS011;2583;50.946;6.954;2023-01-04T17:04:14;1.10;;;0.57;;
5129;SDS011;2583;50.946;6.954;2023-01-04T17:06:41;1.47;;;0.80;;
5129;SDS011;2583;50.946;6.954;2023-01-04T17:09:14;1.77;;;0.70;;
5129;SDS011;2583;50.946;6.954;2023-01-04T17:11:42;1.20;;;0.70;;
5129;SDS011;2583;50.946;6.954;2023-01-04T17:14:41;1.10;;;0.53;;
5129;SDS011;2583;50.946;6.954;2023-01-04T17:17:08;2.37;;;0.77;;
5129;SDS011;2583;50.946;6.954;2023-01-04T17:19:35;3.00;;;0.73;;
5129;SDS011;2583;50.946;6.954;2023-01-04T17:22:02;7.20;;;1.83;;
5129;SDS011;2583;50.946;6.954;2023-01-04T17:24:29;5.40;;;1.37;;
5129;SDS011;2583;50.946;6.954;2023-01-04T17:26:56;5.03;;;1.63;;
5129;SDS011;2583;50.946;6.954;2023-01-04T17:29:23;3.47;;;1.10;;
5129;SDS011;2583;50.946;6.954;2023-01-04T17:31:50;5.83;;;2.13;;
5129;SDS011;2583;50.946;6.954;2023-01-04T17:34:17;6.87;;;1.30;;
5129;SDS011;2583;50.946;6.954;2023-01-04T17:36:48;6.70;;;1.73;;
5129;SDS011;2583;50.946;6.954;2023-01-04T17:39:15;7.17;;;2.47;;
5129;SDS011;2583;50.946;6.954;2023-01-04T17:41:42;4.80;;;1.70;;
5129;SDS011;2583;50.946;6.954;2023-01-04T17:44:09;8.50;;;2.10;;
5129;SDS011;2583;50.946;6.954;2023-01-04T17:46:36;5.83;;;1.67;;
5129;SDS011;2583;50.946;6.954;2023-01-04T17:49:05;7.57;;;1.87;;
5129;SDS011;2583;50.946;6.954;2023-01-04T17:51:53;7.17;;;2.00;;
5129;SDS011;2583;50.946;6.954;2023-01-04T17:54:20;8.07;;;1.87;;
5129;SDS011;2583;50.946;6.954;2023-01-04T17:56:48;10.23;;;2.40;;
5129;SDS011;2583;50.946;6.954;2023-01-04T17:59:14;8.37;;;2.40;;
5129;SDS011;2583;50.946;6.954;2023-01-04T18:01:41;5.80;;;2.13;;
5129;SDS011;2583;50.946;6.954;2023-01-04T18:04:08;13.10;;;2.40;;
5129;SDS011;2583;50.946;6.954;2023-01-04T18:06:35;11.17;;;2.87;;
5129;SDS011;2583;50.946;6.954;2023-01-04T18:09:03;11.77;;;2.53;;
5129;SDS011;2583;50.946;6.954;2023-01-04T18:11:31;14.80;;;3.00;;
5129;SDS011;2583;50.946;6.954;2023-01-04T18:13:59;15.67;;;2.83;;